Time;durP1;ratioP1;P1;durP2;ratioP2;P2;SDS_P1;SDS_P2;PMS_P1;PMS_P2;Temp;Humidity;BMP_temperature;BMP_pressure;BME280_temperature;BME280_humidity;BME280_pressure;Samples;Min_cycle;Max_cycle;Signal;HPM_P1;HPM_P2
2023/06/12 00:00:36;;;;;;;5.75;4.53;;;;;;;;;;4864455;28;20650;-69
2023/06/12 00:03:02;;;;;;;7.55;4.70;;;;;;;;;;4863233;28;20181;-71
2023/06/12 00:05:28;;;;;;;8.57;4.88;;;;;;;;;;4862303;28;20114;-71
2023/06/12 00:07:56;;;;;;;7.30;4.70;;;;;;;;;;4877798;28;20060;-71
2023/06/12 00:10:24;;;;;;;5.90;4.60;;;;;;;;;;4863493;28;20053;-71
2023/06/12 00:12:51;;;;;;;6.97;4.60;;;;;;;;;;4877380;28;20048;-71
2023/06/12 00:15:16;;;;;;;5.40;4.68;;;;;;;;;;4877697;28;20044;-70
2023/06/12 00:17:42;;;;;;;7.05;4.50;;;;;;;;;;4866952;28;22263;-71
2023/06/12 00:20:10;;;;;;;6.22;4.50;;;;;;;;;;4880028;28;20037;-72
2023/06/12 00:22:40;;;;;;;7.30;4.85;;;;;;;;;;4866320;28;20033;-71
2023/06/12 00:25:09;;;;;;;7.35;4.60;;;;;;;;;;4849524;28;20048;-71
2023/06/12 00:27:34;;;;;;;9.23;4.57;;;;;;;;;;4866888;28;20041;-71
2023/06/12 00:30:02;;;;;;;7.20;4.50;;;;;;;;;;4866143;28;20053;-72
2023/06/12 00:32:27;;;;;;;5.50;4.30;;;;;;;;;;4865439;28;20064;-72
2023/06/12 00:34:53;;;;;;;6.35;4.40;;;;;;;;;;4866252;28;20032;-71
2023/06/12 00:37:18;;;;;;;5.25;4.47;;;;;;;;;;4865494;28;20045;-72
2023/06/12 00:39:44;;;;;;;8.02;4.97;;;;;;;;;;4865607;28;20048;-72
2023/06/12 00:42:10;;;;;;;10.18;4.60;;;;;;;;;;4864733;28;20041;-72
2023/06/12 00:44:37;;;;;;;7.60;4.35;;;;;;;;;;4865487;28;20043;-72
2023/06/12 00:47:05;;;;;;;6.53;4.57;;;;;;;;;;4866398;28;20049;-73
2023/06/12 00:49:30;;;;;;;6.93;4.47;;;;;;;;;;4879867;28;20064;-71
2023/06/12 00:51:56;;;;;;;7.38;4.47;;;;;;;;;;4866751;28;20077;-72
2023/06/12 00:54:21;;;;;;;5.45;4.50;;;;;;;;;;4867281;28;20040;-71
2023/06/12 00:56:49;;;;;;;12.55;5.03;;;;;;;;;;4878998;28;20110;-71
2023/06/12 00:59:16;;;;;;;7.28;4.82;;;;;;;;;;4881088;28;20041;-71
2023/06/12 01:01:42;;;;;;;7.00;4.70;;;;;;;;;;4865396;28;20654;-71
2023/06/12 01:04:09;;;;;;;7.13;4.82;;;;;;;;;;4866055;28;20044;-72
2023/06/12 01:06:41;;;;;;;5.72;4.50;;;;;;;;;;4864840;28;20648;-71
2023/06/12 01:09:17;;;;;;;5.68;4.38;;;;;;;;;;4880036;28;20132;-70
2023/06/12 01:11:46;;;;;;;7.63;4.45;;;;;;;;;;4864766;28;20037;-70
2023/06/12 01:14:14;;;;;;;7.95;4.80;;;;;;;;;;4864575;28;20099;-71
2023/06/12 01:16:40;;;;;;;6.78;4.47;;;;;;;;;;4865733;28;20061;-70
2023/06/12 01:19:06;;;;;;;7.22;4.70;;;;;;;;;;4865974;28;20175;-71
2023/06/12 01:21:35;;;;;;;7.40;4.40;;;;;;;;;;4880018;28;20095;-70
2023/06/12 01:24:11;;;;;;;6.50;4.97;;;;;;;;;;4864967;28;20036;-70
2023/06/12 01:26:55;;;;;;;6.32;4.43;;;;;;;;;;4864849;28;20889;-70
2023/06/12 01:29:39;;;;;;;7.72;4.63;;;;;;;;;;4870817;28;20045;-70
2023/06/12 01:32:07;;;;;;;6.65;4.45;;;;;;;;;;4864581;28;20485;-70
2023/06/12 01:34:54;;;;;;;5.88;4.47;;;;;;;;;;4865988;28;20070;-70
2023/06/12 01:37:22;;;;;;;7.78;4.88;;;;;;;;;;4879126;28;20048;-70
2023/06/12 01:40:00;;;;;;;8.27;4.82;;;;;;;;;;4864046;28;20040;-71
2023/06/12 01:42:26;;;;;;;7.25;4.90;;;;;;;;;;4865124;28;20041;-71
2023/06/12 01:44:51;;;;;;;9.18;4.90;;;;;;;;;;4878493;28;20064;-70
2023/06/12 01:47:17;;;;;;;8.82;5.07;;;;;;;;;;4865119;28;20045;-71
2023/06/12 01:49:45;;;;;;;7.10;4.80;;;;;;;;;;4865683;28;20045;-70
2023/06/12 01:52:10;;;;;;;7.65;5.07;;;;;;;;;;4865730;28;20068;-69
2023/06/12 01:54:35;;;;;;;9.40;5.32;;;;;;;;;;4879736;28;20164;-70
2023/06/12 01:57:03;;;;;;;8.45;4.88;;;;;;;;;;4864992;28;20119;-70
2023/06/12 01:59:29;;;;;;;6.88;4.90;;;;;;;;;;4865404;28;20580;-69
2023/06/12 02:01:54;;;;;;;8.05;5.00;;;;;;;;;;4863802;28;20199;-70
2023/06/12 02:04:22;;;;;;;5.90;4.40;;;;;;;;;;4879240;28;20052;-68
2023/06/12 02:06:48;;;;;;;6.60;4.90;;;;;;;;;;4865554;28;20052;-68
2023/06/12 02:09:14;;;;;;;7.32;5.07;;;;;;;;;;4865052;28;20056;-68
2023/06/12 02:11:40;;;;;;;6.47;4.85;;;;;;;;;;4878552;28;20048;-68
2023/06/12 02:14:05;;;;;;;7.97;4.53;;;;;;;;;;4865043;28;20040;-67
2023/06/12 02:16:30;;;;;;;6.72;4.93;;;;;;;;;;4865336;28;20688;-68
2023/06/12 02:18:56;;;;;;;5.15;4.50;;;;;;;;;;4862987;28;20064;-68
2023/06/12 02:21:22;;;;;;;7.95;5.00;;;;;;;;;;4880418;28;20044;-68
2023/06/12 02:23:47;;;;;;;9.60;4.88;;;;;;;;;;4879692;28;20504;-68
2023/06/12 02:26:16;;;;;;;9.18;5.05;;;;;;;;;;4864768;28;20087;-68
2023/06/12 02:28:42;;;;;;;10.38;4.53;;;;;;;;;;4862652;28;20047;-67
2023/06/12 02:31:10;;;;;;;7.90;4.97;;;;;;;;;;4865654;28;20048;-68
2023/06/12 02:33:37;;;;;;;6.57;5.03;;;;;;;;;;4864022;28;20120;-68
2023/06/12 02:36:02;;;;;;;6.00;4.95;;;;;;;;;;4865380;28;20052;-67
2023/06/12 02:38:30;;;;;;;6.18;4.40;;;;;;;;;;4877753;28;20629;-68
2023/06/12 02:40:57;;;;;;;6.93;4.55;;;;;;;;;;4863766;28;20036;-68
2023/06/12 02:43:22;;;;;;;6.60;4.60;;;;;;;;;;4864522;28;20040;-68
2023/06/12 02:45:47;;;;;;;6.80;4.47;;;;;;;;;;4864594;28;20115;-66
2023/06/12 02:48:12;;;;;;;7.30;4.82;;;;;;;;;;4880442;28;20032;-67
2023/06/12 02:50:38;;;;;;;7.38;4.82;;;;;;;;;;4865909;28;20052;-68
2023/06/12 02:53:05;;;;;;;7.10;4.80;;;;;;;;;;4864689;28;20037;-68
2023/06/12 02:55:39;;;;;;;7.55;5.20;;;;;;;;;;4863941;28;20049;-67
2023/06/12 02:58:05;;;;;;;8.70;4.97;;;;;;;;;;4864325;28;20056;-68
2023/06/12 03:00:30;;;;;;;7.63;5.00;;;;;;;;;;4862847;28;20041;-68
2023/06/12 03:02:58;;;;;;;10.18;5.22;;;;;;;;;;4865750;28;20235;-69
2023/06/12 03:05:25;;;;;;;6.85;4.60;;;;;;;;;;4864845;28;20049;-68
2023/06/12 03:07:52;;;;;;;8.00;4.90;;;;;;;;;;4877011;28;20037;-68
2023/06/12 03:10:18;;;;;;;6.00;4.70;;;;;;;;;;4862563;28;20079;-68
2023/06/12 03:12:43;;;;;;;9.82;5.43;;;;;;;;;;4878121;28;20053;-68
2023/06/12 03:15:08;;;;;;;11.52;5.28;;;;;;;;;;4864510;28;20064;-68
2023/06/12 03:17:34;;;;;;;7.20;4.82;;;;;;;;;;4864954;28;20045;-68
2023/06/12 03:19:59;;;;;;;6.45;4.75;;;;;;;;;;4861411;28;20175;-68
2023/06/12 03:22:27;;;;;;;7.68;5.07;;;;;;;;;;4862177;28;20033;-68
2023/06/12 03:24:53;;;;;;;7.45;4.55;;;;;;;;;;4863127;28;20118;-67
2023/06/12 03:27:18;;;;;;;7.60;4.88;;;;;;;;;;4878965;28;20045;-68
2023/06/12 03:29:45;;;;;;;8.45;4.93;;;;;;;;;;4878331;28;20055;-68
2023/06/12 03:32:12;;;;;;;7.45;5.20;;;;;;;;;;4863674;28;20114;-68
2023/06/12 03:34:40;;;;;;;7.07;5.32;;;;;;;;;;4863419;28;20036;-70
2023/06/12 03:37:05;;;;;;;8.13;5.30;;;;;;;;;;4862626;28;20045;-69
2023/06/12 03:39:31;;;;;;;10.13;6.32;;;;;;;;;;4862966;28;20056;-70
2023/06/12 03:41:56;;;;;;;12.32;6.53;;;;;;;;;;4876730;28;20055;-70
2023/06/12 03:44:22;;;;;;;7.18;5.60;;;;;;;;;;4861596;28;20423;-69
2023/06/12 03:46:47;;;;;;;8.95;6.30;;;;;;;;;;4863173;28;20047;-70
2023/06/12 03:49:13;;;;;;;9.88;6.65;;;;;;;;;;4863118;28;20040;-70
2023/06/12 03:51:38;;;;;;;9.57;6.53;;;;;;;;;;4876965;28;20934;-70
2023/06/12 03:54:03;;;;;;;10.23;6.28;;;;;;;;;;4861365;28;20033;-69
2023/06/12 03:56:29;;;;;;;11.80;6.47;;;;;;;;;;4876481;28;20066;-69
2023/06/12 03:58:54;;;;;;;10.63;6.28;;;;;;;;;;4862251;28;20107;-69
2023/06/12 04:01:19;;;;;;;9.90;6.15;;;;;;;;;;4876853;28;20044;-70
2023/06/12 04:03:45;;;;;;;7.95;5.90;;;;;;;;;;4862126;28;20041;-70
2023/06/12 04:06:11;;;;;;;7.50;5.60;;;;;;;;;;4861476;28;20040;-69
2023/06/12 04:08:37;;;;;;;9.38;6.15;;;;;;;;;;4876430;28;20045;-69
2023/06/12 04:11:03;;;;;;;7.65;5.68;;;;;;;;;;4859742;28;22181;-70
2023/06/12 04:13:29;;;;;;;8.63;5.38;;;;;;;;;;4862000;28;20045;-70
2023/06/12 04:15:57;;;;;;;6.65;5.22;;;;;;;;;;4861440;28;20174;-69
2023/06/12 04:18:23;;;;;;;7.38;5.28;;;;;;;;;;4877409;28;20033;-69
2023/06/12 04:20:49;;;;;;;10.30;6.18;;;;;;;;;;4861745;28;20041;-69
2023/06/12 04:23:16;;;;;;;11.05;5.63;;;;;;;;;;4861919;28;20040;-70
2023/06/12 04:25:43;;;;;;;9.75;5.53;;;;;;;;;;4858706;28;20040;-69
2023/06/12 04:28:13;;;;;;;7.63;5.40;;;;;;;;;;4860288;28;20505;-70
2023/06/12 04:30:38;;;;;;;8.20;5.50;;;;;;;;;;4861164;28;20055;-68
2023/06/12 04:33:03;;;;;;;8.02;5.68;;;;;;;;;;4875261;28;20036;-70
2023/06/12 04:35:29;;;;;;;8.70;5.72;;;;;;;;;;4860551;28;20044;-69
2023/06/12 04:37:55;;;;;;;9.48;5.47;;;;;;;;;;4861635;28;20037;-70
2023/06/12 04:40:22;;;;;;;7.38;5.47;;;;;;;;;;4861754;28;20068;-69
2023/06/12 04:42:47;;;;;;;8.30;5.30;;;;;;;;;;4862449;28;20049;-72
2023/06/12 04:45:13;;;;;;;10.30;5.20;;;;;;;;;;4859431;28;20134;-71
2023/06/12 04:47:41;;;;;;;7.28;5.22;;;;;;;;;;4860476;28;20044;-70
2023/06/12 04:50:08;;;;;;;8.13;5.18;;;;;;;;;;4862268;28;20276;-70
2023/06/12 04:52:34;;;;;;;8.73;5.20;;;;;;;;;;4862025;28;20037;-70
2023/06/12 04:55:01;;;;;;;6.72;5.10;;;;;;;;;;4877338;28;21803;-70
2023/06/12 04:57:27;;;;;;;6.10;5.32;;;;;;;;;;4861885;28;22251;-70
2023/06/12 04:59:52;;;;;;;8.30;5.55;;;;;;;;;;4862890;28;20044;-71
2023/06/12 05:02:17;;;;;;;6.60;5.30;;;;;;;;;;4863184;28;20174;-69
2023/06/12 05:04:43;;;;;;;7.43;5.30;;;;;;;;;;4866161;28;20056;-70
2023/06/12 05:07:21;;;;;;;8.55;5.60;;;;;;;;;;4865124;28;20390;-70
2023/06/12 05:09:48;;;;;;;10.60;5.20;;;;;;;;;;4865237;28;20048;-68
2023/06/12 05:12:16;;;;;;;8.38;5.28;;;;;;;;;;4866145;28;20049;-69
2023/06/12 05:14:43;;;;;;;8.15;5.30;;;;;;;;;;4865692;28;20104;-70
2023/06/12 05:17:08;;;;;;;7.03;5.15;;;;;;;;;;4864520;28;20572;-69
2023/06/12 05:19:35;;;;;;;9.75;5.45;;;;;;;;;;4879631;28;20183;-70
2023/06/12 05:22:00;;;;;;;8.38;4.97;;;;;;;;;;4846533;28;20030;-67
2023/06/12 05:24:25;;;;;;;8.50;5.20;;;;;;;;;;4866714;28;20036;-68
2023/06/12 05:26:51;;;;;;;10.20;5.30;;;;;;;;;;4866194;28;20067;-68
2023/06/12 05:29:19;;;;;;;10.10;5.05;;;;;;;;;;4878003;28;20075;-68
2023/06/12 05:31:44;;;;;;;7.93;4.95;;;;;;;;;;4866827;28;20040;-70
2023/06/12 05:34:10;;;;;;;8.77;5.20;;;;;;;;;;4866889;28;20386;-69
2023/06/12 05:36:35;;;;;;;7.30;5.20;;;;;;;;;;4866816;28;20132;-64
2023/06/12 05:39:01;;;;;;;11.68;5.20;;;;;;;;;;4866423;28;20045;-64
2023/06/12 05:41:26;;;;;;;8.77;5.13;;;;;;;;;;4863091;28;20033;-65
2023/06/12 05:43:51;;;;;;;7.43;4.88;;;;;;;;;;4862567;28;20053;-65
2023/06/12 05:46:19;;;;;;;7.20;4.65;;;;;;;;;;4878567;28;20036;-64
2023/06/12 05:48:44;;;;;;;8.35;5.10;;;;;;;;;;4864547;28;20095;-64
2023/06/12 05:51:11;;;;;;;7.57;4.72;;;;;;;;;;4861939;28;20072;-64
2023/06/12 05:53:37;;;;;;;5.82;4.63;;;;;;;;;;4877126;28;20048;-64
2023/06/12 05:56:02;;;;;;;6.50;4.68;;;;;;;;;;4864320;28;20102;-64
2023/06/12 05:58:27;;;;;;;8.13;4.80;;;;;;;;;;4865895;28;20036;-63
2023/06/12 06:00:53;;;;;;;7.88;4.95;;;;;;;;;;4862162;28;20142;-63
2023/06/12 06:03:19;;;;;;;9.23;4.63;;;;;;;;;;4863066;28;20033;-64
2023/06/12 06:05:45;;;;;;;7.53;4.72;;;;;;;;;;4864677;28;20045;-64
2023/06/12 06:08:10;;;;;;;9.52;4.78;;;;;;;;;;4866087;28;20063;-64
2023/06/12 06:10:36;;;;;;;6.55;4.55;;;;;;;;;;4864460;28;20064;-64
2023/06/12 06:13:01;;;;;;;10.05;5.22;;;;;;;;;;4865422;28;20037;-64
2023/06/12 06:15:26;;;;;;;12.32;4.75;;;;;;;;;;4864686;28;20133;-64
2023/06/12 06:17:54;;;;;;;8.25;4.72;;;;;;;;;;4866715;28;20445;-64
2023/06/12 06:20:20;;;;;;;7.25;4.75;;;;;;;;;;4865099;28;20033;-64
2023/06/12 06:22:48;;;;;;;8.15;4.80;;;;;;;;;;4865871;28;20036;-65
2023/06/12 06:25:17;;;;;;;7.80;4.55;;;;;;;;;;4865653;28;20064;-65
2023/06/12 06:27:44;;;;;;;5.55;4.47;;;;;;;;;;4863037;28;20708;-64
2023/06/12 06:30:10;;;;;;;7.05;4.70;;;;;;;;;;4880204;28;20175;-65
2023/06/12 06:32:36;;;;;;;9.38;4.38;;;;;;;;;;4863493;28;20362;-65
2023/06/12 06:35:02;;;;;;;6.28;4.35;;;;;;;;;;4862749;28;20088;-65
2023/06/12 06:37:30;;;;;;;7.05;4.30;;;;;;;;;;4862801;28;20041;-65
2023/06/12 06:39:55;;;;;;;8.13;4.55;;;;;;;;;;4862173;28;20078;-65
2023/06/12 06:42:20;;;;;;;7.40;4.50;;;;;;;;;;4863281;28;20041;-66
2023/06/12 06:44:46;;;;;;;7.35;4.32;;;;;;;;;;4863247;29;20040;-66
2023/06/12 06:47:13;;;;;;;8.40;4.43;;;;;;;;;;4860316;28;20060;-68
2023/06/12 06:49:38;;;;;;;7.75;4.22;;;;;;;;;;4927862;28;20099;-70
2023/06/12 06:52:04;;;;;;;8.25;4.35;;;;;;;;;;4866158;28;20032;-70
2023/06/12 06:54:30;;;;;;;6.78;4.35;;;;;;;;;;4865450;28;20135;-70
2023/06/12 06:56:56;;;;;;;10.10;4.50;;;;;;;;;;4866849;29;20059;-69
2023/06/12 06:59:22;;;;;;;7.03;4.53;;;;;;;;;;4864743;28;20466;-68
2023/06/12 07:01:47;;;;;;;11.70;4.50;;;;;;;;;;4866683;28;20036;-69
2023/06/12 07:04:12;;;;;;;7.20;4.28;;;;;;;;;;4866958;28;20041;-69
2023/06/12 07:06:37;;;;;;;7.05;4.00;;;;;;;;;;4866522;28;20037;-69
2023/06/12 07:09:03;;;;;;;4.75;4.20;;;;;;;;;;4864104;28;20060;-70
2023/06/12 07:11:31;;;;;;;5.28;4.20;;;;;;;;;;4863257;28;20198;-69
2023/06/12 07:13:56;;;;;;;10.57;4.90;;;;;;;;;;4863828;28;20075;-70
2023/06/12 07:16:21;;;;;;;7.68;4.70;;;;;;;;;;4863592;28;20602;-65
2023/06/12 07:18:47;;;;;;;9.05;4.50;;;;;;;;;;4864270;28;20037;-65
2023/06/12 07:21:14;;;;;;;8.52;4.40;;;;;;;;;;4861616;28;20103;-65
2023/06/12 07:23:39;;;;;;;7.88;4.60;;;;;;;;;;4863394;28;20037;-65
2023/06/12 07:26:04;;;;;;;11.70;4.43;;;;;;;;;;4863396;28;20043;-66
2023/06/12 07:28:30;;;;;;;8.88;4.50;;;;;;;;;;4861808;28;20364;-66
2023/06/12 07:30:55;;;;;;;9.82;4.50;;;;;;;;;;4861839;28;20071;-66
2023/06/12 07:33:20;;;;;;;7.15;4.60;;;;;;;;;;4861082;28;20044;-66
2023/06/12 07:35:46;;;;;;;6.13;4.60;;;;;;;;;;4860755;28;20040;-66
2023/06/12 07:38:12;;;;;;;7.13;4.45;;;;;;;;;;4861867;28;20600;-65
2023/06/12 07:40:39;;;;;;;9.05;4.70;;;;;;;;;;4862076;28;20057;-65
2023/06/12 07:43:05;;;;;;;5.40;4.10;;;;;;;;;;4861711;28;20129;-65
2023/06/12 07:45:31;;;;;;;7.90;4.63;;;;;;;;;;4862531;28;20125;-65
2023/06/12 07:47:59;;;;;;;10.25;4.20;;;;;;;;;;4877958;28;20060;-65
2023/06/12 07:50:24;;;;;;;6.07;3.92;;;;;;;;;;4878764;28;22139;-66
2023/06/12 07:52:50;;;;;;;5.75;4.03;;;;;;;;;;4865159;28;20068;-65
2023/06/12 07:55:16;;;;;;;6.68;4.50;;;;;;;;;;4863722;28;20087;-65
2023/06/12 07:57:43;;;;;;;9.27;4.53;;;;;;;;;;4865018;29;20041;-66
2023/06/12 08:00:09;;;;;;;8.48;4.35;;;;;;;;;;4864014;28;20074;-66
2023/06/12 08:02:35;;;;;;;6.75;4.28;;;;;;;;;;4861087;28;20127;-65
2023/06/12 08:05:01;;;;;;;7.68;4.25;;;;;;;;;;4862732;28;20135;-64
2023/06/12 08:07:27;;;;;;;8.95;4.25;;;;;;;;;;4864068;28;20048;-65
2023/06/12 08:09:53;;;;;;;6.47;4.20;;;;;;;;;;4860676;28;20114;-64
2023/06/12 08:12:18;;;;;;;6.75;4.28;;;;;;;;;;4862910;28;22185;-65
2023/06/12 08:14:45;;;;;;;8.38;4.28;;;;;;;;;;4861843;28;20055;-66
2023/06/12 08:17:13;;;;;;;6.47;4.10;;;;;;;;;;4863603;28;20045;-65
2023/06/12 08:19:39;;;;;;;6.05;4.18;;;;;;;;;;4862479;28;20665;-66
2023/06/12 08:22:07;;;;;;;5.32;4.55;;;;;;;;;;4862317;28;20040;-66
2023/06/12 08:24:33;;;;;;;7.15;4.22;;;;;;;;;;4860239;28;20747;-66
2023/06/12 08:26:59;;;;;;;8.55;4.20;;;;;;;;;;4874604;28;20076;-65
2023/06/12 08:29:25;;;;;;;6.05;4.28;;;;;;;;;;4860917;28;22267;-65
2023/06/12 08:31:50;;;;;;;6.95;4.32;;;;;;;;;;4860482;28;20079;-65
2023/06/12 08:34:15;;;;;;;5.45;3.95;;;;;;;;;;4860772;28;20682;-65
2023/06/12 08:36:43;;;;;;;6.95;4.60;;;;;;;;;;4861934;28;20060;-65
2023/06/12 08:39:09;;;;;;;5.63;4.35;;;;;;;;;;4865071;28;20041;-65
2023/06/12 08:41:36;;;;;;;6.15;4.20;;;;;;;;;;4864691;28;20118;-65
2023/06/12 08:44:02;;;;;;;8.68;4.03;;;;;;;;;;4866396;28;20044;-65
2023/06/12 08:46:33;;;;;;;5.85;4.30;;;;;;;;;;4880479;28;20402;-66
2023/06/12 08:49:01;;;;;;;7.55;4.35;;;;;;;;;;4879039;28;20040;-65
2023/06/12 08:51:27;;;;;;;8.57;4.35;;;;;;;;;;4864606;28;20056;-65
2023/06/12 08:53:56;;;;;;;6.43;4.57;;;;;;;;;;4861662;28;20056;-66
2023/06/12 08:56:25;;;;;;;7.82;4.70;;;;;;;;;;4860699;28;20040;-65
2023/06/12 08:58:50;;;;;;;9.80;4.60;;;;;;;;;;4863020;28;20044;-65
2023/06/12 09:01:16;;;;;;;5.95;4.43;;;;;;;;;;4867367;28;20112;-66
2023/06/12 09:03:46;;;;;;;6.18;4.32;;;;;;;;;;4865685;28;20041;-65
2023/06/12 09:06:11;;;;;;;;;;;;;;;;;;4866614;28;20076;-66
2023/06/12 09:08:39;;;;;;;8.38;4.60;;;;;;;;;;4865837;28;20351;-66
2023/06/12 09:11:06;;;;;;;10.80;4.57;;;;;;;;;;4880342;28;20048;-67
2023/06/12 09:13:42;;;;;;;6.57;4.10;;;;;;;;;;4865666;28;21795;-67
2023/06/12 09:16:13;;;;;;;10.02;4.40;;;;;;;;;;4863698;28;20537;-66
2023/06/12 09:18:54;;;;;;;6.20;4.03;;;;;;;;;;4863502;28;20092;-66
2023/06/12 09:21:24;;;;;;;7.13;4.63;;;;;;;;;;4865724;29;20043;-66
2023/06/12 09:23:57;;;;;;;7.60;4.68;;;;;;;;;;4864644;28;20127;-65
2023/06/12 09:26:22;;;;;;;8.90;4.50;;;;;;;;;;4864770;28;20033;-67
2023/06/12 09:28:52;;;;;;;9.60;4.25;;;;;;;;;;4863988;28;20099;-66
2023/06/12 09:31:17;;;;;;;9.70;4.72;;;;;;;;;;4864860;28;20048;-65
2023/06/12 09:33:44;;;;;;;7.50;4.40;;;;;;;;;;4863366;28;20052;-65
2023/06/12 09:36:10;;;;;;;11.68;4.40;;;;;;;;;;4862509;28;20607;-65
2023/06/12 09:38:35;;;;;;;9.30;4.22;;;;;;;;;;4875767;28;20032;-66
2023/06/12 09:41:09;;;;;;;5.60;4.50;;;;;;;;;;4877822;28;20045;-66
2023/06/12 09:43:34;;;;;;;6.18;4.50;;;;;;;;;;4863497;28;20099;-66
2023/06/12 09:46:07;;;;;;;6.32;4.60;;;;;;;;;;4863215;28;20556;-66
2023/06/12 09:48:36;;;;;;;8.50;4.38;;;;;;;;;;4863178;28;20128;-67
2023/06/12 09:51:05;;;;;;;7.47;4.20;;;;;;;;;;4880136;28;21016;-69
2023/06/12 09:53:32;;;;;;;7.25;4.43;;;;;;;;;;4859860;28;20037;-69
2023/06/12 09:55:57;;;;;;;9.07;4.10;;;;;;;;;;4865869;28;20064;-68
2023/06/12 09:58:23;;;;;;;5.07;4.10;;;;;;;;;;4864718;28;20041;-67
2023/06/12 10:00:48;;;;;;;6.93;4.38;;;;;;;;;;4865031;28;20041;-68
2023/06/12 10:03:16;;;;;;;5.55;4.05;;;;;;;;;;4865532;28;20045;-66
2023/06/12 10:05:48;;;;;;;5.65;4.22;;;;;;;;;;4865086;28;20040;-67
2023/06/12 10:08:14;;;;;;;7.20;4.13;;;;;;;;;;4864185;28;20737;-66
2023/06/12 10:10:39;;;;;;;6.32;4.05;;;;;;;;;;4864420;28;20056;-67
2023/06/12 10:13:04;;;;;;;5.63;4.28;;;;;;;;;;4862696;28;20652;-67
2023/06/12 10:15:33;;;;;;;7.18;4.63;;;;;;;;;;4863255;28;20410;-66
2023/06/12 10:17:58;;;;;;;7.90;4.00;;;;;;;;;;4862249;28;20044;-67
2023/06/12 10:20:26;;;;;;;7.38;4.38;;;;;;;;;;4864408;28;20683;-66
2023/06/12 10:22:55;;;;;;;6.82;4.25;;;;;;;;;;4864498;28;20040;-66
2023/06/12 10:25:20;;;;;;;7.20;4.10;;;;;;;;;;4864180;28;20072;-68
2023/06/12 10:27:48;;;;;;;7.85;4.20;;;;;;;;;;4865304;28;20221;-68
2023/06/12 10:30:15;;;;;;;6.35;4.20;;;;;;;;;;4864997;28;20056;-68
2023/06/12 10:32:44;;;;;;;5.97;4.38;;;;;;;;;;4865061;28;20128;-67
2023/06/12 10:35:09;;;;;;;8.40;4.20;;;;;;;;;;4864188;28;20119;-68
2023/06/12 10:37:39;;;;;;;7.45;4.60;;;;;;;;;;4863003;28;20047;-69
2023/06/12 10:40:09;;;;;;;6.67;4.20;;;;;;;;;;4864571;28;20482;-67
2023/06/12 10:42:47;;;;;;;6.32;4.40;;;;;;;;;;4862155;28;20898;-67
2023/06/12 10:45:13;;;;;;;5.70;4.43;;;;;;;;;;4862805;28;20037;-67
2023/06/12 10:47:41;;;;;;;4.88;3.90;;;;;;;;;;4863822;28;20076;-67
2023/06/12 10:50:07;;;;;;;5.07;4.05;;;;;;;;;;4865599;28;20385;-66
2023/06/12 10:52:33;;;;;;;5.30;4.15;;;;;;;;;;4879391;28;20124;-68
2023/06/12 10:55:17;;;;;;;6.05;4.15;;;;;;;;;;4878567;28;20060;-68
2023/06/12 10:57:49;;;;;;;10.98;4.15;;;;;;;;;;4864109;28;20056;-66
2023/06/12 11:00:16;;;;;;;6.10;4.13;;;;;;;;;;4858920;28;20036;-69
2023/06/12 11:02:42;;;;;;;4.82;3.90;;;;;;;;;;4864071;28;20669;-68
2023/06/12 11:05:08;;;;;;;5.00;3.83;;;;;;;;;;4862475;28;20032;-68
2023/06/12 11:07:33;;;;;;;5.10;3.92;;;;;;;;;;4860364;28;20784;-68
2023/06/12 11:10:07;;;;;;;6.10;3.97;;;;;;;;;;4879406;28;20057;-68
2023/06/12 11:12:32;;;;;;;5.40;3.97;;;;;;;;;;4862987;28;20064;-67
2023/06/12 11:14:57;;;;;;;5.85;4.05;;;;;;;;;;4864143;28;20036;-68
2023/06/12 11:17:22;;;;;;;5.32;3.95;;;;;;;;;;4862870;28;20433;-68
2023/06/12 11:19:48;;;;;;;5.55;3.90;;;;;;;;;;4863911;28;20096;-68
2023/06/12 11:22:15;;;;;;;9.30;3.90;;;;;;;;;;4878682;28;20051;-68
2023/06/12 11:24:40;;;;;;;5.50;3.72;;;;;;;;;;4862959;28;20292;-67
2023/06/12 11:27:06;;;;;;;5.43;3.70;;;;;;;;;;4863453;28;20041;-68
2023/06/12 11:29:34;;;;;;;3.92;3.47;;;;;;;;;;4863799;28;20040;-68
2023/06/12 11:32:04;;;;;;;3.75;3.30;;;;;;;;;;4864699;28;20028;-67
2023/06/12 11:34:35;;;;;;;6.50;3.70;;;;;;;;;;4863817;28;20079;-68
2023/06/12 11:37:13;;;;;;;5.63;3.60;;;;;;;;;;4864266;28;20132;-68
2023/06/12 11:39:39;;;;;;;5.65;3.70;;;;;;;;;;4862707;28;20047;-68
2023/06/12 11:42:05;;;;;;;6.28;4.25;;;;;;;;;;4863106;28;20095;-68
2023/06/12 11:44:31;;;;;;;4.97;3.75;;;;;;;;;;4879087;28;20040;-68
2023/06/12 11:47:00;;;;;;;8.48;4.10;;;;;;;;;;4864344;28;20083;-68
2023/06/12 11:49:25;;;;;;;5.03;3.30;;;;;;;;;;4925831;28;20072;-68
2023/06/12 11:51:51;;;;;;;8.05;3.80;;;;;;;;;;4860465;28;20037;-68
2023/06/12 11:54:16;;;;;;;6.18;3.80;;;;;;;;;;4862233;28;22499;-67
2023/06/12 11:56:42;;;;;;;5.13;3.65;;;;;;;;;;4862657;28;20033;-68
2023/06/12 11:59:07;;;;;;;6.10;3.63;;;;;;;;;;4865037;28;20041;-67
2023/06/12 12:01:38;;;;;;;7.45;3.67;;;;;;;;;;4862639;28;20040;-69
2023/06/12 12:04:05;;;;;;;5.13;3.20;;;;;;;;;;4862140;28;20043;-65
2023/06/12 12:06:31;;;;;;;5.18;3.55;;;;;;;;;;4863644;28;20040;-66
2023/06/12 12:08:58;;;;;;;7.20;3.42;;;;;;;;;;4874280;28;20052;-68
2023/06/12 12:11:28;;;;;;;7.25;3.30;;;;;;;;;;4845564;28;21614;-67
2023/06/12 12:13:58;;;;;;;7.00;3.40;;;;;;;;;;4847927;28;20898;-68
2023/06/12 12:16:26;;;;;;;7.43;3.30;;;;;;;;;;4848442;28;20120;-68
2023/06/12 12:18:52;;;;;;;3.80;3.33;;;;;;;;;;4847750;28;20076;-69
2023/06/12 12:21:21;;;;;;;5.60;3.50;;;;;;;;;;4846980;28;21063;-67
2023/06/12 12:23:47;;;;;;;3.55;2.92;;;;;;;;;;4862338;28;20046;-66
2023/06/12 12:26:12;;;;;;;5.05;2.95;;;;;;;;;;4859702;28;20091;-67
2023/06/12 12:28:38;;;;;;;4.90;3.08;;;;;;;;;;4847530;28;20045;-69
2023/06/12 12:31:03;;;;;;;7.03;3.53;;;;;;;;;;4862270;28;20073;-70
2023/06/12 12:33:28;;;;;;;4.70;3.45;;;;;;;;;;4851177;28;21010;-76
2023/06/12 12:35:54;;;;;;;7.47;3.22;;;;;;;;;;4851857;28;20047;-75
2023/06/12 12:38:19;;;;;;;4.00;3.00;;;;;;;;;;4852214;28;20085;-76
2023/06/12 12:40:44;;;;;;;3.72;2.63;;;;;;;;;;4850034;28;20317;-78
2023/06/12 12:43:10;;;;;;;3.67;2.88;;;;;;;;;;4856554;29;20116;-79
2023/06/12 12:45:35;;;;;;;5.70;3.45;;;;;;;;;;4857208;28;20033;-81
2023/06/12 12:48:00;;;;;;;4.82;3.42;;;;;;;;;;4853768;28;20041;-77
2023/06/12 12:50:25;;;;;;;4.97;3.10;;;;;;;;;;4878270;28;20088;-74
2023/06/12 12:52:51;;;;;;;3.80;3.33;;;;;;;;;;4886324;28;20994;-75
2023/06/12 12:55:16;;;;;;;5.68;3.28;;;;;;;;;;4866370;28;20113;-74
2023/06/12 12:57:44;;;;;;;5.57;3.15;;;;;;;;;;4880212;28;20034;-76
2023/06/12 13:00:11;;;;;;;4.80;3.40;;;;;;;;;;4867994;28;20041;-77
2023/06/12 13:02:39;;;;;;;5.47;3.60;;;;;;;;;;4867235;28;20048;-75
2023/06/12 13:05:05;;;;;;;3.28;2.95;;;;;;;;;;4853117;29;20124;-76
2023/06/12 13:07:32;;;;;;;5.85;3.03;;;;;;;;;;4865580;28;20129;-75
2023/06/12 13:10:00;;;;;;;4.85;3.05;;;;;;;;;;4867182;28;20075;-74
2023/06/12 13:12:25;;;;;;;4.07;3.10;;;;;;;;;;4869606;28;20037;-76
2023/06/12 13:14:50;;;;;;;5.57;3.08;;;;;;;;;;4862937;28;20048;-77
2023/06/12 13:17:16;;;;;;;4.88;3.10;;;;;;;;;;4869411;28;20056;-75
2023/06/12 13:19:41;;;;;;;8.25;3.28;;;;;;;;;;4869670;29;20033;-74
2023/06/12 13:22:09;;;;;;;6.90;3.17;;;;;;;;;;4871654;28;20041;-77
2023/06/12 13:24:34;;;;;;;4.13;3.08;;;;;;;;;;4883448;28;20024;-73
2023/06/12 13:26:59;;;;;;;4.47;3.22;;;;;;;;;;4869909;28;20037;-75
2023/06/12 13:29:24;;;;;;;4.40;3.10;;;;;;;;;;4868710;28;20028;-76
2023/06/12 13:31:50;;;;;;;6.13;3.10;;;;;;;;;;4870644;28;20036;-74
2023/06/12 13:34:15;;;;;;;6.50;3.20;;;;;;;;;;4871068;28;20128;-74
2023/06/12 13:36:40;;;;;;;6.63;3.50;;;;;;;;;;4871452;28;20814;-75
2023/06/12 13:39:06;;;;;;;6.53;3.22;;;;;;;;;;4870578;28;20045;-76
2023/06/12 13:41:32;;;;;;;4.55;3.13;;;;;;;;;;4870168;28;20033;-74
2023/06/12 13:43:57;;;;;;;8.52;3.40;;;;;;;;;;4870164;28;22056;-75
2023/06/12 13:46:25;;;;;;;5.35;3.05;;;;;;;;;;4872095;28;20194;-76
2023/06/12 13:48:51;;;;;;;5.03;3.47;;;;;;;;;;4871439;28;20036;-74
2023/06/12 13:51:17;;;;;;;4.40;2.90;;;;;;;;;;4868898;28;20048;-78
2023/06/12 13:53:42;;;;;;;4.18;3.00;;;;;;;;;;4870415;28;20064;-75
2023/06/12 13:56:08;;;;;;;6.68;3.40;;;;;;;;;;4883210;28;20043;-76
2023/06/12 13:58:33;;;;;;;4.00;3.10;;;;;;;;;;4869327;28;20037;-76
2023/06/12 14:00:58;;;;;;;5.10;2.92;;;;;;;;;;4867372;28;20051;-75
2023/06/12 14:03:24;;;;;;;5.40;3.22;;;;;;;;;;4868386;28;20605;-75
2023/06/12 14:05:49;;;;;;;5.18;3.40;;;;;;;;;;4871437;28;20103;-75
2023/06/12 14:08:15;;;;;;;4.45;3.30;;;;;;;;;;4884428;28;20048;-76
2023/06/12 14:10:44;;;;;;;6.70;3.30;;;;;;;;;;4882316;28;20048;-75
2023/06/12 14:13:10;;;;;;;8.02;3.40;;;;;;;;;;4871212;28;20048;-75
2023/06/12 14:15:39;;;;;;;7.72;3.65;;;;;;;;;;4884420;28;20044;-75
2023/06/12 14:18:04;;;;;;;8.88;3.00;;;;;;;;;;4868173;28;20044;-75
2023/06/12 14:20:31;;;;;;;5.72;3.03;;;;;;;;;;4886128;28;20767;-74
2023/06/12 14:22:57;;;;;;;5.68;3.00;;;;;;;;;;4868086;28;21019;-75
2023/06/12 14:25:23;;;;;;;7.68;2.95;;;;;;;;;;4864780;28;20063;-77
2023/06/12 14:27:48;;;;;;;3.80;2.70;;;;;;;;;;4866532;28;20041;-75
2023/06/12 14:30:13;;;;;;;10.25;3.28;;;;;;;;;;4866458;28;20142;-76
2023/06/12 14:32:39;;;;;;;3.17;2.50;;;;;;;;;;4868191;28;20040;-74
2023/06/12 14:35:04;;;;;;;4.82;2.90;;;;;;;;;;4868689;28;21183;-75
2023/06/12 14:37:29;;;;;;;3.90;3.00;;;;;;;;;;4869697;28;20120;-75
2023/06/12 14:39:55;;;;;;;6.82;2.75;;;;;;;;;;4872219;28;20051;-74